sensor_id;sensor_type;location;lat;lon;timestamp;P1;durP1;ratioP1;P2;durP2;ratioP2
9773;SDS011;4926;42.670;23.316;2022-11-18T00:01:04;23.05;;;16.02;;
9773;SDS011;4926;42.670;23.316;2022-11-18T00:03:31;20.90;;;16.25;;
9773;SDS011;4926;42.670;23.316;2022-11-18T00:05:58;21.25;;;15.60;;
9773;SDS011;4926;42.670;23.316;2022-11-18T00:08:27;19.55;;;14.63;;
9773;SDS011;4926;42.670;23.316;2022-11-18T00:10:53;20.88;;;14.98;;
9773;SDS011;4926;42.670;23.316;2022-11-18T00:13:20;20.15;;;14.55;;
9773;SDS011;4926;42.670;23.316;2022-11-18T00:16:05;19.95;;;14.38;;
9773;SDS011;4926;42.670;23.316;2022-11-18T00:18:33;19.73;;;14.57;;
9773;SDS011;4926;42.670;23.316;2022-11-18T00:21:00;22.70;;;15.70;;
9773;SDS011;4926;42.670;23.316;2022-11-18T00:23:36;20.55;;;15.88;;
9773;SDS011;4926;42.670;23.316;2022-11-18T00:26:05;24.27;;;16.10;;
9773;SDS011;4926;42.670;23.316;2022-11-18T00:28:33;22.33;;;16.70;;
9773;SDS011;4926;42.670;23.316;2022-11-18T00:31:00;24.67;;;16.48;;
9773;SDS011;4926;42.670;23.316;2022-11-18T00:33:31;23.30;;;16.10;;
9773;SDS011;4926;42.670;23.316;2022-11-18T00:36:00;21.05;;;16.05;;
9773;SDS011;4926;42.670;23.316;2022-11-18T00:38:28;21.42;;;15.55;;
9773;SDS011;4926;42.670;23.316;2022-11-18T00:41:00;20.52;;;15.75;;
9773;SDS011;4926;42.670;23.316;2022-11-18T00:43:28;20.08;;;15.15;;
9773;SDS011;4926;42.670;23.316;2022-11-18T00:45:54;20.42;;;14.77;;
9773;SDS011;4926;42.670;23.316;2022-11-18T00:48:20;24.00;;;16.85;;
9773;SDS011;4926;42.670;23.316;2022-11-18T00:50:50;21.63;;;15.23;;
9773;SDS011;4926;42.670;23.316;2022-11-18T00:53:18;21.50;;;16.00;;
9773;SDS011;4926;42.670;23.316;2022-11-18T00:55:46;23.38;;;15.85;;
9773;SDS011;4926;42.670;23.316;2022-11-18T00:58:16;21.73;;;14.73;;
9773;SDS011;4926;42.670;23.316;2022-11-18T01:00:45;19.80;;;14.52;;
9773;SDS011;4926;42.670;23.316;2022-11-18T01:03:15;22.23;;;14.90;;
9773;SDS011;4926;42.670;23.316;2022-11-18T01:05:42;21.92;;;16.33;;
9773;SDS011;4926;42.670;23.316;2022-11-18T01:08:11;18.95;;;13.95;;
9773;SDS011;4926;42.670;23.316;2022-11-18T01:10:38;20.05;;;14.45;;
9773;SDS011;4926;42.670;23.316;2022-11-18T01:13:06;19.88;;;13.43;;
9773;SDS011;4926;42.670;23.316;2022-11-18T01:15:55;17.52;;;13.50;;
9773;SDS011;4926;42.670;23.316;2022-11-18T01:18:23;18.83;;;14.40;;
9773;SDS011;4926;42.670;23.316;2022-11-18T01:20:52;23.27;;;14.55;;
9773;SDS011;4926;42.670;23.316;2022-11-18T01:23:25;18.23;;;14.43;;
9773;SDS011;4926;42.670;23.316;2022-11-18T01:25:52;20.02;;;15.43;;
9773;SDS011;4926;42.670;23.316;2022-11-18T01:28:20;19.65;;;14.52;;
9773;SDS011;4926;42.670;23.316;2022-11-18T01:30:46;23.30;;;15.23;;
9773;SDS011;4926;42.670;23.316;2022-11-18T01:33:15;18.75;;;14.48;;
9773;SDS011;4926;42.670;23.316;2022-11-18T01:35:44;19.50;;;14.07;;
9773;SDS011;4926;42.670;23.316;2022-11-18T01:38:12;18.92;;;14.50;;
9773;SDS011;4926;42.670;23.316;2022-11-18T01:40:39;18.27;;;13.65;;
9773;SDS011;4926;42.670;23.316;2022-11-18T01:43:09;19.27;;;14.52;;
9773;SDS011;4926;42.670;23.316;2022-11-18T01:45:39;17.38;;;13.27;;
9773;SDS011;4926;42.670;23.316;2022-11-18T01:48:09;19.33;;;12.63;;
9773;SDS011;4926;42.670;23.316;2022-11-18T01:50:45;17.80;;;13.13;;
9773;SDS011;4926;42.670;23.316;2022-11-18T01:53:17;17.42;;;13.02;;
9773;SDS011;4926;42.670;23.316;2022-11-18T01:55:49;17.75;;;13.25;;
9773;SDS011;4926;42.670;23.316;2022-11-18T01:58:21;20.60;;;14.77;;
9773;SDS011;4926;42.670;23.316;2022-11-18T02:00:52;23.88;;;17.90;;
9773;SDS011;4926;42.670;23.316;2022-11-18T02:03:19;33.28;;;23.23;;
9773;SDS011;4926;42.670;23.316;2022-11-18T02:05:48;33.30;;;23.58;;
9773;SDS011;4926;42.670;23.316;2022-11-18T02:08:17;34.55;;;25.20;;
9773;SDS011;4926;42.670;23.316;2022-11-18T02:10:45;40.25;;;28.38;;
9773;SDS011;4926;42.670;23.316;2022-11-18T02:13:11;39.03;;;28.55;;
9773;SDS011;4926;42.670;23.316;2022-11-18T02:15:47;43.63;;;29.85;;
9773;SDS011;4926;42.670;23.316;2022-11-18T02:18:27;39.75;;;27.92;;
9773;SDS011;4926;42.670;23.316;2022-11-18T02:21:06;39.15;;;27.88;;
9773;SDS011;4926;42.670;23.316;2022-11-18T02:24:01;37.30;;;25.55;;
9773;SDS011;4926;42.670;23.316;2022-11-18T02:26:52;37.00;;;24.63;;
9773;SDS011;4926;42.670;23.316;2022-11-18T02:29:40;32.42;;;25.02;;
9773;SDS011;4926;42.670;23.316;2022-11-18T02:32:14;38.88;;;27.52;;
9773;SDS011;4926;42.670;23.316;2022-11-18T02:34:47;31.65;;;22.23;;
9773;SDS011;4926;42.670;23.316;2022-11-18T02:37:18;31.30;;;22.63;;
9773;SDS011;4926;42.670;23.316;2022-11-18T02:39:51;33.22;;;23.02;;
9773;SDS011;4926;42.670;23.316;2022-11-18T02:42:22;30.52;;;22.20;;
9773;SDS011;4926;42.670;23.316;2022-11-18T02:44:55;34.88;;;23.42;;
9773;SDS011;4926;42.670;23.316;2022-11-18T02:47:28;33.58;;;24.33;;
9773;SDS011;4926;42.670;23.316;2022-11-18T02:49:59;33.72;;;22.27;;
9773;SDS011;4926;42.670;23.316;2022-11-18T02:52:28;33.30;;;23.35;;
9773;SDS011;4926;42.670;23.316;2022-11-18T02:54:57;29.80;;;22.95;;
9773;SDS011;4926;42.670;23.316;2022-11-18T02:57:26;31.38;;;21.90;;
9773;SDS011;4926;42.670;23.316;2022-11-18T02:59:56;29.58;;;21.23;;
9773;SDS011;4926;42.670;23.316;2022-11-18T03:02:25;26.83;;;20.67;;
9773;SDS011;4926;42.670;23.316;2022-11-18T03:04:53;29.55;;;20.83;;
9773;SDS011;4926;42.670;23.316;2022-11-18T03:07:26;28.08;;;19.15;;
9773;SDS011;4926;42.670;23.316;2022-11-18T03:09:55;28.50;;;18.60;;
9773;SDS011;4926;42.670;23.316;2022-11-18T03:12:26;28.73;;;20.50;;
9773;SDS011;4926;42.670;23.316;2022-11-18T03:15:15;28.52;;;18.92;;
9773;SDS011;4926;42.670;23.316;2022-11-18T03:17:52;26.08;;;18.35;;
9773;SDS011;4926;42.670;23.316;2022-11-18T03:20:26;24.67;;;18.90;;
9773;SDS011;4926;42.670;23.316;2022-11-18T03:22:59;27.00;;;19.67;;
9773;SDS011;4926;42.670;23.316;2022-11-18T03:25:33;32.00;;;21.27;;
9773;SDS011;4926;42.670;23.316;2022-11-18T03:28:11;29.85;;;20.20;;
9773;SDS011;4926;42.670;23.316;2022-11-18T03:30:45;28.75;;;21.02;;
9773;SDS011;4926;42.670;23.316;2022-11-18T03:33:20;30.63;;;22.63;;
9773;SDS011;4926;42.670;23.316;2022-11-18T03:36:00;33.80;;;23.15;;
9773;SDS011;4926;42.670;23.316;2022-11-18T03:38:31;29.98;;;22.90;;
9773;SDS011;4926;42.670;23.316;2022-11-18T03:41:03;33.15;;;24.38;;
9773;SDS011;4926;42.670;23.316;2022-11-18T03:43:35;35.63;;;26.05;;
9773;SDS011;4926;42.670;23.316;2022-11-18T03:46:07;37.60;;;27.52;;
9773;SDS011;4926;42.670;23.316;2022-11-18T03:48:40;41.78;;;28.27;;
9773;SDS011;4926;42.670;23.316;2022-11-18T03:51:13;41.90;;;29.27;;
9773;SDS011;4926;42.670;23.316;2022-11-18T03:53:50;38.17;;;27.05;;
9773;SDS011;4926;42.670;23.316;2022-11-18T03:56:20;31.00;;;22.10;;
9773;SDS011;4926;42.670;23.316;2022-11-18T03:58:52;30.40;;;20.05;;
9773;SDS011;4926;42.670;23.316;2022-11-18T04:01:28;27.33;;;19.50;;
9773;SDS011;4926;42.670;23.316;2022-11-18T04:04:02;26.70;;;17.42;;
9773;SDS011;4926;42.670;23.316;2022-11-18T04:06:31;20.60;;;16.08;;
9773;SDS011;4926;42.670;23.316;2022-11-18T04:09:05;21.73;;;14.90;;
9773;SDS011;4926;42.670;23.316;2022-11-18T04:11:39;21.50;;;14.82;;
9773;SDS011;4926;42.670;23.316;2022-11-18T04:14:28;19.75;;;15.00;;
9773;SDS011;4926;42.670;23.316;2022-11-18T04:17:06;25.92;;;16.45;;
9773;SDS011;4926;42.670;23.316;2022-11-18T04:19:33;25.45;;;16.52;;
9773;SDS011;4926;42.670;23.316;2022-11-18T04:22:00;26.42;;;17.20;;
9773;SDS011;4926;42.670;23.316;2022-11-18T04:24:30;23.23;;;17.05;;
9773;SDS011;4926;42.670;23.316;2022-11-18T04:26:58;23.33;;;15.63;;
9773;SDS011;4926;42.670;23.316;2022-11-18T04:29:26;24.60;;;17.30;;
9773;SDS011;4926;42.670;23.316;2022-11-18T04:31:56;22.38;;;16.75;;
9773;SDS011;4926;42.670;23.316;2022-11-18T04:34:24;23.60;;;17.48;;
9773;SDS011;4926;42.670;23.316;2022-11-18T04:36:50;49.05;;;21.70;;
9773;SDS011;4926;42.670;23.316;2022-11-18T04:39:17;70.35;;;25.67;;
9773;SDS011;4926;42.670;23.316;2022-11-18T04:41:44;38.80;;;25.00;;
9773;SDS011;4926;42.670;23.316;2022-11-18T04:44:20;65.60;;;26.83;;
9773;SDS011;4926;42.670;23.316;2022-11-18T04:46:47;72.38;;;26.92;;
9773;SDS011;4926;42.670;23.316;2022-11-18T04:49:17;44.42;;;26.10;;
9773;SDS011;4926;42.670;23.316;2022-11-18T04:51:47;76.70;;;31.65;;
9773;SDS011;4926;42.670;23.316;2022-11-18T04:54:15;59.30;;;28.63;;
9773;SDS011;4926;42.670;23.316;2022-11-18T04:56:42;79.57;;;29.55;;
9773;SDS011;4926;42.670;23.316;2022-11-18T04:59:10;74.22;;;26.95;;
9773;SDS011;4926;42.670;23.316;2022-11-18T05:01:38;96.70;;;30.95;;
9773;SDS011;4926;42.670;23.316;2022-11-18T05:04:10;92.05;;;31.80;;
9773;SDS011;4926;42.670;23.316;2022-11-18T05:06:41;124.25;;;31.67;;
9773;SDS011;4926;42.670;23.316;2022-11-18T05:09:09;100.50;;;30.52;;
9773;SDS011;4926;42.670;23.316;2022-11-18T05:11:36;84.45;;;31.75;;
9773;SDS011;4926;42.670;23.316;2022-11-18T05:14:22;83.35;;;30.75;;
9773;SDS011;4926;42.670;23.316;2022-11-18T05:16:53;79.35;;;31.38;;
9773;SDS011;4926;42.670;23.316;2022-11-18T05:19:24;100.95;;;31.85;;
9773;SDS011;4926;42.670;23.316;2022-11-18T05:21:51;106.18;;;35.30;;
9773;SDS011;4926;42.670;23.316;2022-11-18T05:24:21;84.68;;;31.65;;
9773;SDS011;4926;42.670;23.316;2022-11-18T05:26:49;69.60;;;31.35;;
9773;SDS011;4926;42.670;23.316;2022-11-18T05:29:16;101.07;;;32.28;;
9773;SDS011;4926;42.670;23.316;2022-11-18T05:31:46;57.55;;;30.08;;
9773;SDS011;4926;42.670;23.316;2022-11-18T05:34:13;105.10;;;32.25;;
9773;SDS011;4926;42.670;23.316;2022-11-18T05:36:41;75.40;;;32.53;;
9773;SDS011;4926;42.670;23.316;2022-11-18T05:39:10;78.60;;;30.45;;
9773;SDS011;4926;42.670;23.316;2022-11-18T05:41:38;117.63;;;33.53;;
9773;SDS011;4926;42.670;23.316;2022-11-18T05:44:22;84.93;;;31.55;;
9773;SDS011;4926;42.670;23.316;2022-11-18T05:46:49;108.72;;;30.88;;
9773;SDS011;4926;42.670;23.316;2022-11-18T05:49:16;65.68;;;29.98;;
9773;SDS011;4926;42.670;23.316;2022-11-18T05:51:43;48.53;;;27.73;;
9773;SDS011;4926;42.670;23.316;2022-11-18T05:54:09;73.50;;;30.13;;
9773;SDS011;4926;42.670;23.316;2022-11-18T05:56:41;42.42;;;27.85;;
9773;SDS011;4926;42.670;23.316;2022-11-18T05:59:09;73.90;;;29.10;;
9773;SDS011;4926;42.670;23.316;2022-11-18T06:01:37;63.38;;;28.27;;
9773;SDS011;4926;42.670;23.316;2022-11-18T06:04:09;58.80;;;27.15;;
9773;SDS011;4926;42.670;23.316;2022-11-18T06:06:40;159.30;;;33.65;;
9773;SDS011;4926;42.670;23.316;2022-11-18T06:09:08;72.28;;;29.80;;
9773;SDS011;4926;42.670;23.316;2022-11-18T06:11:38;65.82;;;29.77;;
9773;SDS011;4926;42.670;23.316;2022-11-18T06:14:19;116.45;;;30.88;;
9773;SDS011;4926;42.670;23.316;2022-11-18T06:16:53;100.97;;;27.45;;
9773;SDS011;4926;42.670;23.316;2022-11-18T06:19:24;97.15;;;28.70;;
9773;SDS011;4926;42.670;23.316;2022-11-18T06:21:51;60.72;;;24.73;;
9773;SDS011;4926;42.670;23.316;2022-11-18T06:24:21;65.75;;;29.15;;
9773;SDS011;4926;42.670;23.316;2022-11-18T06:26:49;44.92;;;24.58;;
9773;SDS011;4926;42.670;23.316;2022-11-18T06:29:17;61.85;;;26.50;;
9773;SDS011;4926;42.670;23.316;2022-11-18T06:31:47;89.65;;;23.70;;
9773;SDS011;4926;42.670;23.316;2022-11-18T06:34:14;53.58;;;22.73;;
9773;SDS011;4926;42.670;23.316;2022-11-18T06:36:43;69.05;;;26.27;;
9773;SDS011;4926;42.670;23.316;2022-11-18T06:39:10;53.53;;;25.85;;
9773;SDS011;4926;42.670;23.316;2022-11-18T06:41:37;65.05;;;24.38;;
9773;SDS011;4926;42.670;23.316;2022-11-18T06:44:05;58.38;;;27.83;;
9773;SDS011;4926;42.670;23.316;2022-11-18T06:46:31;94.43;;;23.85;;
9773;SDS011;4926;42.670;23.316;2022-11-18T06:49:16;114.85;;;27.92;;
9773;SDS011;4926;42.670;23.316;2022-11-18T06:51:42;77.57;;;23.02;;
9773;SDS011;4926;42.670;23.316;2022-11-18T06:54:09;74.43;;;23.30;;
9773;SDS011;4926;42.670;23.316;2022-11-18T06:56:41;62.75;;;23.10;;
9773;SDS011;4926;42.670;23.316;2022-11-18T06:59:09;68.55;;;24.67;;
9773;SDS011;4926;42.670;23.316;2022-11-18T07:01:37;49.40;;;25.05;;
9773;SDS011;4926;42.670;23.316;2022-11-18T07:04:08;72.75;;;25.85;;
9773;SDS011;4926;42.670;23.316;2022-11-18T07:06:38;57.55;;;26.15;;
9773;SDS011;4926;42.670;23.316;2022-11-18T07:09:05;56.85;;;26.05;;
9773;SDS011;4926;42.670;23.316;2022-11-18T07:11:32;63.78;;;27.00;;
9773;SDS011;4926;42.670;23.316;2022-11-18T07:13:59;68.78;;;27.60;;
9773;SDS011;4926;42.670;23.316;2022-11-18T07:16:28;60.88;;;23.48;;
9773;SDS011;4926;42.670;23.316;2022-11-18T07:18:54;58.92;;;25.90;;
9773;SDS011;4926;42.670;23.316;2022-11-18T07:21:22;52.83;;;24.08;;
9773;SDS011;4926;42.670;23.316;2022-11-18T07:23:49;68.22;;;26.20;;
9773;SDS011;4926;42.670;23.316;2022-11-18T07:26:17;79.72;;;28.23;;
9773;SDS011;4926;42.670;23.316;2022-11-18T07:28:44;51.85;;;26.50;;
9773;SDS011;4926;42.670;23.316;2022-11-18T07:31:11;75.05;;;26.63;;
9773;SDS011;4926;42.670;23.316;2022-11-18T07:33:41;65.43;;;26.38;;
9773;SDS011;4926;42.670;23.316;2022-11-18T07:36:09;52.30;;;28.10;;
9773;SDS011;4926;42.670;23.316;2022-11-18T07:38:37;52.75;;;28.40;;
9773;SDS011;4926;42.670;23.316;2022-11-18T07:41:04;76.15;;;24.77;;
9773;SDS011;4926;42.670;23.316;2022-11-18T07:43:35;56.03;;;26.58;;
9773;SDS011;4926;42.670;23.316;2022-11-18T07:46:09;57.40;;;25.77;;
9773;SDS011;4926;42.670;23.316;2022-11-18T07:48:40;111.55;;;28.35;;
9773;SDS011;4926;42.670;23.316;2022-11-18T07:51:08;56.92;;;25.42;;
9773;SDS011;4926;42.670;23.316;2022-11-18T07:53:38;68.43;;;25.08;;
9773;SDS011;4926;42.670;23.316;2022-11-18T07:56:05;53.22;;;23.48;;
9773;SDS011;4926;42.670;23.316;2022-11-18T07:58:33;43.38;;;20.92;;
9773;SDS011;4926;42.670;23.316;2022-11-18T08:01:05;50.15;;;22.77;;
9773;SDS011;4926;42.670;23.316;2022-11-18T08:03:35;49.33;;;23.42;;
9773;SDS011;4926;42.670;23.316;2022-11-18T08:06:04;49.53;;;25.08;;
9773;SDS011;4926;42.670;23.316;2022-11-18T08:08:32;45.30;;;23.67;;
9773;SDS011;4926;42.670;23.316;2022-11-18T08:10:59;71.10;;;28.05;;
9773;SDS011;4926;42.670;23.316;2022-11-18T08:13:27;52.72;;;24.75;;
9773;SDS011;4926;42.670;23.316;2022-11-18T08:15:56;60.75;;;25.20;;
9773;SDS011;4926;42.670;23.316;2022-11-18T08:18:23;64.15;;;26.35;;
9773;SDS011;4926;42.670;23.316;2022-11-18T08:20:50;43.75;;;23.90;;
9773;SDS011;4926;42.670;23.316;2022-11-18T08:23:18;49.92;;;24.73;;
9773;SDS011;4926;42.670;23.316;2022-11-18T08:25:48;50.33;;;25.08;;
9773;SDS011;4926;42.670;23.316;2022-11-18T08:28:15;52.28;;;25.88;;
9773;SDS011;4926;42.670;23.316;2022-11-18T08:30:42;66.00;;;26.23;;
9773;SDS011;4926;42.670;23.316;2022-11-18T08:33:08;55.28;;;25.33;;
9773;SDS011;4926;42.670;23.316;2022-11-18T08:35:35;50.35;;;25.95;;
9773;SDS011;4926;42.670;23.316;2022-11-18T08:38:02;48.85;;;23.85;;
9773;SDS011;4926;42.670;23.316;2022-11-18T08:40:30;49.72;;;26.45;;
9773;SDS011;4926;42.670;23.316;2022-11-18T08:42:56;59.92;;;26.42;;
9773;SDS011;4926;42.670;23.316;2022-11-18T08:45:23;56.10;;;27.08;;
9773;SDS011;4926;42.670;23.316;2022-11-18T08:47:50;57.75;;;27.48;;
9773;SDS011;4926;42.670;23.316;2022-11-18T08:50:17;54.20;;;27.48;;
9773;SDS011;4926;42.670;23.316;2022-11-18T08:52:46;58.58;;;28.25;;
9773;SDS011;4926;42.670;23.316;2022-11-18T08:55:13;83.03;;;31.67;;
9773;SDS011;4926;42.670;23.316;2022-11-18T08:57:44;63.03;;;29.50;;
9773;SDS011;4926;42.670;23.316;2022-11-18T09:00:12;61.85;;;29.27;;
9773;SDS011;4926;42.670;23.316;2022-11-18T09:02:39;64.22;;;28.88;;
9773;SDS011;4926;42.670;23.316;2022-11-18T09:05:08;68.07;;;29.15;;
9773;SDS011;4926;42.670;23.316;2022-11-18T09:07:38;65.65;;;30.88;;
9773;SDS011;4926;42.670;23.316;2022-11-18T09:10:05;68.78;;;26.63;;
9773;SDS011;4926;42.670;23.316;2022-11-18T09:12:32;51.00;;;26.27;;
9773;SDS011;4926;42.670;23.316;2022-11-18T09:15:00;57.20;;;26.95;;
9773;SDS011;4926;42.670;23.316;2022-11-18T09:17:27;57.08;;;28.73;;
9773;SDS011;4926;42.670;23.316;2022-11-18T09:19:53;56.15;;;26.95;;
9773;SDS011;4926;42.670;23.316;2022-11-18T09:22:23;56.78;;;28.92;;
9773;SDS011;4926;42.670;23.316;2022-11-18T09:24:49;52.50;;;27.50;;
9773;SDS011;4926;42.670;23.316;2022-11-18T09:27:16;62.67;;;30.92;;
9773;SDS011;4926;42.670;23.316;2022-11-18T09:29:43;65.43;;;31.27;;
9773;SDS011;4926;42.670;23.316;2022-11-18T09:32:11;64.85;;;32.03;;
9773;SDS011;4926;42.670;23.316;2022-11-18T09:34:38;66.30;;;33.10;;
9773;SDS011;4926;42.670;23.316;2022-11-18T09:37:04;64.78;;;30.55;;
9773;SDS011;4926;42.670;23.316;2022-11-18T09:39:32;60.50;;;32.38;;
9773;SDS011;4926;42.670;23.316;2022-11-18T09:42:03;70.32;;;32.85;;
9773;SDS011;4926;42.670;23.316;2022-11-18T09:45:01;60.58;;;32.50;;
9773;SDS011;4926;42.670;23.316;2022-11-18T09:47:36;56.33;;;30.02;;
9773;SDS011;4926;42.670;23.316;2022-11-18T09:50:03;57.03;;;28.25;;
9773;SDS011;4926;42.670;23.316;2022-11-18T09:52:32;50.63;;;27.00;;
9773;SDS011;4926;42.670;23.316;2022-11-18T09:55:07;46.30;;;25.10;;
9773;SDS011;4926;42.670;23.316;2022-11-18T09:57:39;36.13;;;20.73;;
9773;SDS011;4926;42.670;23.316;2022-11-18T10:00:13;30.10;;;19.05;;
9773;SDS011;4926;42.670;23.316;2022-11-18T10:02:49;25.30;;;16.30;;
9773;SDS011;4926;42.670;23.316;2022-11-18T10:05:23;24.17;;;14.70;;
9773;SDS011;4926;42.670;23.316;2022-11-18T10:08:01;32.03;;;17.80;;
9773;SDS011;4926;42.670;23.316;2022-11-18T10:10:37;32.45;;;18.02;;
9773;SDS011;4926;42.670;23.316;2022-11-18T10:13:17;42.35;;;24.08;;
9773;SDS011;4926;42.670;23.316;2022-11-18T10:15:53;42.15;;;25.40;;
9773;SDS011;4926;42.670;23.316;2022-11-18T10:18:29;44.08;;;23.90;;
9773;SDS011;4926;42.670;23.316;2022-11-18T10:21:06;37.30;;;22.80;;
9773;SDS011;4926;42.670;23.316;2022-11-18T10:23:44;27.73;;;17.48;;
9773;SDS011;4926;42.670;23.316;2022-11-18T10:26:31;26.92;;;16.27;;
9773;SDS011;4926;42.670;23.316;2022-11-18T10:29:02;26.13;;;14.80;;
9773;SDS011;4926;42.670;23.316;2022-11-18T10:31:35;24.20;;;15.82;;
9773;SDS011;4926;42.670;23.316;2022-11-18T10:34:09;17.67;;;12.25;;
9773;SDS011;4926;42.670;23.316;2022-11-18T10:36:38;18.50;;;11.15;;
9773;SDS011;4926;42.670;23.316;2022-11-18T10:39:10;26.48;;;17.77;;
9773;SDS011;4926;42.670;23.316;2022-11-18T10:41:38;30.13;;;17.95;;
9773;SDS011;4926;42.670;23.316;2022-11-18T10:46:53;26.70;;;17.52;;
9773;SDS011;4926;42.670;23.316;2022-11-18T10:49:41;37.20;;;21.70;;
9773;SDS011;4926;42.670;23.316;2022-11-18T10:52:09;40.55;;;23.45;;
9773;SDS011;4926;42.670;23.316;2022-11-18T10:54:37;36.17;;;21.63;;
9773;SDS011;4926;42.670;23.316;2022-11-18T10:57:05;32.35;;;20.40;;
9773;SDS011;4926;42.670;23.316;2022-11-18T10:59:40;38.03;;;23.10;;
9773;SDS011;4926;42.670;23.316;2022-11-18T11:02:14;35.17;;;20.63;;
9773;SDS011;4926;42.670;23.316;2022-11-18T11:04:44;41.97;;;26.58;;
9773;SDS011;4926;42.670;23.316;2022-11-18T11:07:16;43.40;;;27.67;;
9773;SDS011;4926;42.670;23.316;2022-11-18T11:10:12;45.25;;;28.33;;
9773;SDS011;4926;42.670;23.316;2022-11-18T11:12:46;41.35;;;24.58;;
9773;SDS011;4926;42.670;23.316;2022-11-18T11:15:18;43.75;;;25.50;;
9773;SDS011;4926;42.670;23.316;2022-11-18T11:17:50;37.05;;;22.80;;
9773;SDS011;4926;42.670;23.316;2022-11-18T11:20:34;43.05;;;24.75;;
9773;SDS011;4926;42.670;23.316;2022-11-18T11:23:06;39.17;;;23.38;;
9773;SDS011;4926;42.670;23.316;2022-11-18T11:25:36;40.20;;;25.98;;
9773;SDS011;4926;42.670;23.316;2022-11-18T11:28:11;44.72;;;26.42;;
9773;SDS011;4926;42.670;23.316;2022-11-18T11:30:44;42.67;;;27.33;;
9773;SDS011;4926;42.670;23.316;2022-11-18T11:33:18;43.28;;;25.15;;
9773;SDS011;4926;42.670;23.316;2022-11-18T11:36:00;39.30;;;25.88;;
9773;SDS011;4926;42.670;23.316;2022-11-18T11:38:39;37.55;;;24.50;;
9773;SDS011;4926;42.670;23.316;2022-11-18T11:41:21;44.38;;;28.20;;
9773;SDS011;4926;42.670;23.316;2022-11-18T11:43:59;48.83;;;28.00;;
9773;SDS011;4926;42.670;23.316;2022-11-18T11:46:53;35.47;;;22.17;;
9773;SDS011;4926;42.670;23.316;2022-11-18T11:49:51;34.47;;;22.27;;
9773;SDS011;4926;42.670;23.316;2022-11-18T11:52:27;34.58;;;21.55;;
9773;SDS011;4926;42.670;23.316;2022-11-18T11:55:06;30.45;;;19.50;;
9773;SDS011;4926;42.670;23.316;2022-11-18T11:57:43;25.83;;;16.75;;
9773;SDS011;4926;42.670;23.316;2022-11-18T12:00:22;27.77;;;19.10;;
9773;SDS011;4926;42.670;23.316;2022-11-18T12:02:53;24.30;;;17.10;;
9773;SDS011;4926;42.670;23.316;2022-11-18T12:05:29;27.88;;;18.15;;
9773;SDS011;4926;42.670;23.316;2022-11-18T12:08:02;30.42;;;18.38;;
9773;SDS011;4926;42.670;23.316;2022-11-18T12:10:35;26.98;;;16.30;;
9773;SDS011;4926;42.670;23.316;2022-11-18T12:16:02;24.75;;;16.13;;
9773;SDS011;4926;42.670;23.316;2022-11-18T12:18:38;23.10;;;17.10;;
9773;SDS011;4926;42.670;23.316;2022-11-18T12:21:11;26.23;;;16.45;;
9773;SDS011;4926;42.670;23.316;2022-11-18T12:24:29;21.10;;;15.05;;
9773;SDS011;4926;42.670;23.316;2022-11-18T12:27:02;22.77;;;15.48;;
9773;SDS011;4926;42.670;23.316;2022-11-18T12:29:34;22.27;;;14.65;;
9773;SDS011;4926;42.670;23.316;2022-11-18T12:32:13;19.50;;;14.95;;
9773;SDS011;4926;42.670;23.316;2022-11-18T12:34:54;24.02;;;15.32;;
9773;SDS011;4926;42.670;23.316;2022-11-18T12:37:38;17.05;;;11.65;;
9773;SDS011;4926;42.670;23.316;2022-11-18T12:40:12;14.95;;;10.57;;
9773;SDS011;4926;42.670;23.316;2022-11-18T12:42:57;17.05;;;10.38;;
9773;SDS011;4926;42.670;23.316;2022-11-18T12:45:51;16.60;;;10.05;;
9773;SDS011;4926;42.670;23.316;2022-11-18T12:48:32;12.65;;;9.35;;
9773;SDS011;4926;42.670;23.316;2022-11-18T12:51:06;12.75;;;9.70;;
9773;SDS011;4926;42.670;23.316;2022-11-18T12:53:51;17.77;;;10.55;;
9773;SDS011;4926;42.670;23.316;2022-11-18T12:56:21;13.55;;;10.27;;
9773;SDS011;4926;42.670;23.316;2022-11-18T12:58:50;13.65;;;9.20;;
9773;SDS011;4926;42.670;23.316;2022-11-18T13:01:20;12.73;;;7.97;;
9773;SDS011;4926;42.670;23.316;2022-11-18T13:03:48;23.50;;;7.53;;
9773;SDS011;4926;42.670;23.316;2022-11-18T13:06:23;9.52;;;6.15;;
9773;SDS011;4926;42.670;23.316;2022-11-18T13:08:52;10.55;;;6.38;;
9773;SDS011;4926;42.670;23.316;2022-11-18T13:11:24;9.35;;;4.97;;
9773;SDS011;4926;42.670;23.316;2022-11-18T13:14:13;7.82;;;5.00;;
9773;SDS011;4926;42.670;23.316;2022-11-18T13:16:59;6.75;;;4.20;;
9773;SDS011;4926;42.670;23.316;2022-11-18T13:19:52;6.28;;;4.10;;
9773;SDS011;4926;42.670;23.316;2022-11-18T13:22:21;6.30;;;4.68;;
9773;SDS011;4926;42.670;23.316;2022-11-18T13:25:20;4.70;;;2.45;;
9773;SDS011;4926;42.670;23.316;2022-11-18T13:27:53;3.25;;;2.95;;
9773;SDS011;4926;42.670;23.316;2022-11-18T13:30:27;4.15;;;2.78;;
9773;SDS011;4926;42.670;23.316;2022-11-18T13:32:57;7.88;;;3.53;;
9773;SDS011;4926;42.670;23.316;2022-11-18T13:35:24;5.70;;;3.70;;
9773;SDS011;4926;42.670;23.316;2022-11-18T13:37:54;8.07;;;4.80;;
9773;SDS011;4926;42.670;23.316;2022-11-18T13:40:23;6.13;;;4.25;;
9773;SDS011;4926;42.670;23.316;2022-11-18T13:42:53;7.20;;;4.30;;
9773;SDS011;4926;42.670;23.316;2022-11-18T13:45:20;5.40;;;4.07;;
9773;SDS011;4926;42.670;23.316;2022-11-18T13:47:51;6.40;;;3.85;;
9773;SDS011;4926;42.670;23.316;2022-11-18T13:50:24;7.45;;;2.88;;
9773;SDS011;4926;42.670;23.316;2022-11-18T13:52:59;6.22;;;3.70;;
9773;SDS011;4926;42.670;23.316;2022-11-18T13:55:33;5.47;;;3.55;;
9773;SDS011;4926;42.670;23.316;2022-11-18T13:58:05;6.07;;;3.65;;
9773;SDS011;4926;42.670;23.316;2022-11-18T14:00:53;12.32;;;4.60;;
9773;SDS011;4926;42.670;23.316;2022-11-18T14:03:22;9.25;;;4.20;;
9773;SDS011;4926;42.670;23.316;2022-11-18T14:05:57;5.00;;;2.75;;
9773;SDS011;4926;42.670;23.316;2022-11-18T14:08:26;4.82;;;2.78;;
9773;SDS011;4926;42.670;23.316;2022-11-18T14:10:57;4.68;;;3.58;;
9773;SDS011;4926;42.670;23.316;2022-11-18T14:13:26;3.83;;;2.90;;
9773;SDS011;4926;42.670;23.316;2022-11-18T14:15:56;3.85;;;2.00;;
9773;SDS011;4926;42.670;23.316;2022-11-18T14:18:29;2.85;;;1.80;;
9773;SDS011;4926;42.670;23.316;2022-11-18T14:21:00;3.22;;;1.88;;
9773;SDS011;4926;42.670;23.316;2022-11-18T14:23:30;2.30;;;1.85;;
9773;SDS011;4926;42.670;23.316;2022-11-18T14:26:00;4.22;;;2.00;;
9773;SDS011;4926;42.670;23.316;2022-11-18T14:28:29;5.20;;;3.67;;
9773;SDS011;4926;42.670;23.316;2022-11-18T14:31:01;4.35;;;3.00;;
9773;SDS011;4926;42.670;23.316;2022-11-18T14:33:31;8.23;;;3.17;;
9773;SDS011;4926;42.670;23.316;2022-11-18T14:36:00;5.65;;;3.45;;
9773;SDS011;4926;42.670;23.316;2022-11-18T14:38:29;5.50;;;3.97;;
9773;SDS011;4926;42.670;23.316;2022-11-18T14:41:03;4.03;;;1.80;;
9773;SDS011;4926;42.670;23.316;2022-11-18T14:43:33;6.13;;;2.00;;
9773;SDS011;4926;42.670;23.316;2022-11-18T14:46:01;2.80;;;1.60;;
9773;SDS011;4926;42.670;23.316;2022-11-18T14:48:30;1.95;;;1.45;;
9773;SDS011;4926;42.670;23.316;2022-11-18T14:50:57;3.38;;;1.85;;
9773;SDS011;4926;42.670;23.316;2022-11-18T14:53:24;2.50;;;1.90;;
9773;SDS011;4926;42.670;23.316;2022-11-18T14:55:53;3.30;;;2.10;;
9773;SDS011;4926;42.670;23.316;2022-11-18T14:58:23;4.50;;;2.67;;
9773;SDS011;4926;42.670;23.316;2022-11-18T15:00:51;3.40;;;1.85;;
9773;SDS011;4926;42.670;23.316;2022-11-18T15:03:18;2.78;;;1.40;;
9773;SDS011;4926;42.670;23.316;2022-11-18T15:05:45;6.30;;;1.58;;
9773;SDS011;4926;42.670;23.316;2022-11-18T15:08:12;2.83;;;1.63;;
9773;SDS011;4926;42.670;23.316;2022-11-18T15:10:40;1.95;;;1.50;;